This is the latest recevied weather packets stored in our database for station/object SQ7IQO. If no packets are shown the sender has not sent any weather packets the latest 10 day(s).
| Time | Temp. | Humidity | Pressure | Rain* | Wind** | Luminosity | Snow |
|---|---|---|---|---|---|---|---|
| 1787661996 | 25° C | 48% | 1021.2 hPa | 0 mm | 0.89 m/s, ° | - | - |
| 1787661936 | 24.44° C | 49% | 1021.2 hPa | 0 mm | 0 m/s | - | - |
| 1787661876 | 23.89° C | 51% | 1021.2 hPa | 0 mm | 0 m/s | - | - |
| 1787661816 | 24.44° C | 49% | 1021.2 hPa | 0 mm | 0 m/s | - | - |
| 1787661756 | 23.89° C | 53% | 1021.2 hPa | 0 mm | 0 m/s | - | - |
| 1787661696 | 23.89° C | 50% | 1021.2 hPa | 0 mm | 0 m/s | - | - |
| 1787661636 | 23.89° C | 51% | 1021.2 hPa | 0 mm | 0 m/s | - | - |
| 1787661576 | 23.33° C | 53% | 1021.2 hPa | 0 mm | 0 m/s | - | - |
| 1787661516 | 23.33° C | 51% | 1021.2 hPa | 0 mm | 0 m/s | - | - |
| 1787661456 | 23.33° C | 53% | 1021.2 hPa | 0 mm | 0.45 m/s, ° | - | - |
| 1787661396 | 23.33° C | 53% | 1021.4 hPa | 0 mm | 0 m/s | - | - |
| 1787661336 | 23.89° C | 51% | 1021.2 hPa | 0 mm | 0.45 m/s, ° | - | - |
| 1787661276 | 24.44° C | 49% | 1021.2 hPa | 0 mm | 0.45 m/s, ° | - | - |
| 1787661216 | 24.44° C | 48% | 1021.4 hPa | 0 mm | 0 m/s | - | - |
| 1787661156 | 23.89° C | 51% | 1021.2 hPa | 0 mm | 0 m/s | - | - |
| 1787661096 | 23.33° C | 52% | 1021.2 hPa | 0 mm | 0 m/s | - | - |
| 1787661036 | 22.78° C | 51% | 1021.2 hPa | 0 mm | 0 m/s | - | - |
| 1787660976 | 22.78° C | 51% | 1021.2 hPa | 0 mm | 0 m/s | - | - |
| 1787660916 | 23.33° C | 52% | 1021.2 hPa | 0 mm | 0.45 m/s, ° | - | - |
| 1787660856 | 23.33° C | 51% | 1021.2 hPa | 0 mm | 0 m/s | - | - |
| 1787660796 | 22.78° C | 57% | 1021.4 hPa | 0 mm | 0 m/s | - | - |
| 1787660736 | 22.78° C | 52% | 1021.4 hPa | 0 mm | 0 m/s | - | - |
| 1787660676 | 22.78° C | 52% | 1021.4 hPa | 0 mm | 0.45 m/s, ° | - | - |
| 1787660616 | 22.78° C | 55% | 1021.4 hPa | 0 mm | 0 m/s | - | - |
| 1787660556 | 22.78° C | 55% | 1021.4 hPa | 0 mm | 0 m/s | - | - |
* Rain latest hour (hover to see other rain measurements)
** Current wind speed in m/s (hover to see current wind gust speed)